DLH7P LKPR-EDDF
Flight info
| Callsign | DLH7P |
|---|---|
| Flight time | 0h 42m |
| Altitude | 30000 |
| Route | BALT4B BALTU DCT DONAD DCT RAPET T170 VAGAB/N0433F240 T170 GAPLA T178 KERAX KERA5A |
| Aircraft | A321/M-SDE3FGHIRWY/LB1 |
Departure
| Time | 2026-05-04 17:27 |
|---|---|
| Airport | Václav Havel Airport Prague (LKPR) |
Arrival
| Time | 2026-05-04 18:09 |
|---|---|
| Airport | Frankfurt Main Airport (EDDF) |
| Time | Latitude | Longitude | Altitude | Speed | Heading |
|---|---|---|---|---|---|
| 2026-05-04 16:53 | 50.10436 | 14.26581 | 1178 ft | 0 kts | 34° |
| 2026-05-04 17:17 | 50.10395 | 14.26550 | 1179 ft | 4 kts | 324° |
| 2026-05-04 17:18 | 50.10391 | 14.26555 | 1179 ft | 0 kts | 304° |
| 2026-05-04 17:20 | 50.10394 | 14.26547 | 1177 ft | 2 kts | 304° |
| 2026-05-04 17:20 | 50.10440 | 14.26462 | 1175 ft | 9 kts | 306° |
| 2026-05-04 17:20 | 50.10480 | 14.26370 | 1175 ft | 11 kts | 303° |
| 2026-05-04 17:21 | 50.10534 | 14.26115 | 1179 ft | 14 kts | 260° |
| 2026-05-04 17:21 | 50.10474 | 14.26033 | 1185 ft | 5 kts | 138° |
| 2026-05-04 17:22 | 50.10454 | 14.26073 | 1186 ft | 5 kts | 128° |
| 2026-05-04 17:22 | 50.10431 | 14.26119 | 1187 ft | 6 kts | 127° |
| 2026-05-04 17:23 | 50.10322 | 14.26347 | 1191 ft | 12 kts | 127° |
| 2026-05-04 17:23 | 50.10264 | 14.26466 | 1194 ft | 15 kts | 127° |
| 2026-05-04 17:23 | 50.10137 | 14.26730 | 1198 ft | 15 kts | 127° |
| 2026-05-04 17:24 | 50.10075 | 14.26860 | 1201 ft | 14 kts | 127° |
| 2026-05-04 17:24 | 50.09909 | 14.27203 | 1205 ft | 18 kts | 127° |
| 2026-05-04 17:25 | 50.09825 | 14.27362 | 1205 ft | 20 kts | 133° |
| 2026-05-04 17:25 | 50.09638 | 14.27640 | 1208 ft | 12 kts | 150° |
| 2026-05-04 17:26 | 50.09504 | 14.27539 | 1214 ft | 10 kts | 215° |
| 2026-05-04 17:26 | 50.09676 | 14.26864 | 1216 ft | 94 kts | 307° |
| 2026-05-04 17:27 | 50.10902 | 14.24325 | 1807 ft | 163 kts | 308° |
| 2026-05-04 17:27 | 50.12265 | 14.21505 | 3279 ft | 168 kts | 308° |
| 2026-05-04 17:28 | 50.13833 | 14.18249 | 3940 ft | 211 kts | 307° |
| 2026-05-04 17:29 | 50.16896 | 14.11884 | 5124 ft | 270 kts | 307° |
| 2026-05-04 17:29 | 50.19465 | 14.04089 | 7434 ft | 278 kts | 267° |
| 2026-05-04 17:30 | 50.19012 | 13.94941 | 9602 ft | 289 kts | 271° |
| 2026-05-04 17:31 | 50.19199 | 13.88659 | 11151 ft | 290 kts | 269° |
| 2026-05-04 17:31 | 50.19249 | 13.79173 | 13419 ft | 293 kts | 268° |
| 2026-05-04 17:32 | 50.19278 | 13.73848 | 14533 ft | 298 kts | 269° |
| 2026-05-04 17:33 | 50.19424 | 13.64012 | 16411 ft | 308 kts | 278° |
| 2026-05-04 17:33 | 50.19903 | 13.60719 | 16995 ft | 311 kts | 278° |
| 2026-05-04 17:34 | 50.20815 | 13.50602 | 18702 ft | 318 kts | 275° |
| 2026-05-04 17:34 | 50.21080 | 13.47159 | 19264 ft | 321 kts | 275° |
| 2026-05-04 17:35 | 50.21900 | 13.36648 | 20879 ft | 327 kts | 275° |
| 2026-05-04 17:35 | 50.22474 | 13.29575 | 21881 ft | 332 kts | 275° |
| 2026-05-04 17:35 | 50.22777 | 13.25977 | 22366 ft | 335 kts | 276° |
| 2026-05-04 17:36 | 50.23083 | 13.22353 | 22848 ft | 337 kts | 276° |
| 2026-05-04 17:36 | 50.23411 | 13.18470 | 23346 ft | 339 kts | 276° |
| 2026-05-04 17:36 | 50.23718 | 13.14811 | 23805 ft | 340 kts | 275° |
| 2026-05-04 17:36 | 50.24021 | 13.11118 | 24243 ft | 343 kts | 275° |
| 2026-05-04 17:37 | 50.24323 | 13.07415 | 24658 ft | 345 kts | 275° |
| 2026-05-04 17:37 | 50.24627 | 13.03683 | 25078 ft | 347 kts | 275° |
| 2026-05-04 17:37 | 50.24927 | 12.99975 | 25495 ft | 349 kts | 275° |
| 2026-05-04 17:37 | 50.25230 | 12.96192 | 25920 ft | 350 kts | 275° |
| 2026-05-04 17:38 | 50.25535 | 12.92398 | 26342 ft | 352 kts | 275° |
| 2026-05-04 17:38 | 50.25841 | 12.88589 | 26732 ft | 353 kts | 275° |
| 2026-05-04 17:38 | 50.26142 | 12.84799 | 27117 ft | 355 kts | 275° |
| 2026-05-04 17:38 | 50.26443 | 12.80969 | 27486 ft | 357 kts | 275° |
| 2026-05-04 17:39 | 50.27056 | 12.73234 | 28202 ft | 360 kts | 275° |
| 2026-05-04 17:39 | 50.27363 | 12.69324 | 28554 ft | 362 kts | 275° |
| 2026-05-04 17:39 | 50.27669 | 12.65407 | 28904 ft | 363 kts | 275° |
| 2026-05-04 17:40 | 50.27974 | 12.61518 | 29224 ft | 364 kts | 275° |
| 2026-05-04 17:40 | 50.28280 | 12.57575 | 29543 ft | 366 kts | 275° |
| 2026-05-04 17:40 | 50.28584 | 12.53607 | 29871 ft | 368 kts | 275° |
| 2026-05-04 17:40 | 50.28885 | 12.49617 | 29967 ft | 372 kts | 275° |
| 2026-05-04 17:41 | 50.29504 | 12.41341 | 29973 ft | 393 kts | 275° |
| 2026-05-04 17:41 | 50.30169 | 12.32670 | 29972 ft | 413 kts | 275° |
| 2026-05-04 17:42 | 50.30857 | 12.23534 | 29972 ft | 431 kts | 275° |
| 2026-05-04 17:42 | 50.32010 | 12.14210 | 29970 ft | 440 kts | 283° |
| 2026-05-04 17:43 | 50.33447 | 12.04904 | 29972 ft | 439 kts | 278° |
| 2026-05-04 17:43 | 50.34802 | 11.95696 | 29971 ft | 440 kts | 282° |
| 2026-05-04 17:44 | 50.36474 | 11.86454 | 29971 ft | 441 kts | 284° |
| 2026-05-04 17:44 | 50.38201 | 11.77236 | 29971 ft | 441 kts | 284° |
| 2026-05-04 17:45 | 50.39862 | 11.68001 | 29971 ft | 440 kts | 283° |
| 2026-05-04 17:45 | 50.41471 | 11.58759 | 29969 ft | 440 kts | 283° |
| 2026-05-04 17:46 | 50.43073 | 11.49511 | 29970 ft | 439 kts | 283° |
| 2026-05-04 17:46 | 50.44666 | 11.40314 | 29973 ft | 439 kts | 283° |
| 2026-05-04 17:47 | 50.46268 | 11.31076 | 29707 ft | 438 kts | 282° |
| 2026-05-04 17:47 | 50.46893 | 11.26411 | 29502 ft | 435 kts | 272° |
| 2026-05-04 17:47 | 50.46988 | 11.21671 | 29304 ft | 435 kts | 269° |
| 2026-05-04 17:48 | 50.47033 | 11.16929 | 29104 ft | 435 kts | 269° |
| 2026-05-04 17:48 | 50.47067 | 11.12167 | 28904 ft | 436 kts | 269° |
| 2026-05-04 17:48 | 50.47096 | 11.07398 | 28706 ft | 437 kts | 269° |
| 2026-05-04 17:48 | 50.47123 | 11.02620 | 28502 ft | 438 kts | 269° |
| 2026-05-04 17:49 | 50.47147 | 10.97839 | 28310 ft | 438 kts | 269° |
| 2026-05-04 17:49 | 50.47170 | 10.93053 | 28111 ft | 439 kts | 269° |
| 2026-05-04 17:49 | 50.47193 | 10.88266 | 27911 ft | 440 kts | 269° |
| 2026-05-04 17:49 | 50.47215 | 10.83451 | 27710 ft | 441 kts | 269° |
| 2026-05-04 17:50 | 50.47235 | 10.78693 | 27512 ft | 441 kts | 269° |
| 2026-05-04 17:50 | 50.47253 | 10.73873 | 27312 ft | 442 kts | 268° |
| 2026-05-04 17:50 | 50.47266 | 10.69030 | 27112 ft | 443 kts | 268° |
| 2026-05-04 17:50 | 50.47276 | 10.64167 | 26911 ft | 444 kts | 268° |
| 2026-05-04 17:51 | 50.47284 | 10.59297 | 26706 ft | 445 kts | 268° |
| 2026-05-04 17:51 | 50.47297 | 10.54486 | 26509 ft | 446 kts | 268° |
| 2026-05-04 17:51 | 50.47322 | 10.49602 | 26285 ft | 446 kts | 269° |
| 2026-05-04 17:51 | 50.47354 | 10.44752 | 25393 ft | 444 kts | 269° |
| 2026-05-04 17:52 | 50.47387 | 10.39883 | 24448 ft | 444 kts | 269° |
| 2026-05-04 17:52 | 50.47418 | 10.35093 | 23795 ft | 435 kts | 268° |
| 2026-05-04 17:52 | 50.47444 | 10.30429 | 23132 ft | 428 kts | 268° |
| 2026-05-04 17:52 | 50.47464 | 10.25797 | 22412 ft | 423 kts | 268° |
| 2026-05-04 17:53 | 50.47477 | 10.21178 | 21529 ft | 422 kts | 268° |
| 2026-05-04 17:53 | 50.47486 | 10.16578 | 20708 ft | 418 kts | 268° |
| 2026-05-04 17:53 | 50.47497 | 10.12029 | 19889 ft | 414 kts | 268° |
| 2026-05-04 17:53 | 50.47506 | 10.07522 | 19091 ft | 410 kts | 268° |
| 2026-05-04 17:54 | 50.47510 | 10.03119 | 18316 ft | 406 kts | 268° |
| 2026-05-04 17:54 | 50.47512 | 9.98703 | 17532 ft | 402 kts | 268° |
| 2026-05-04 17:54 | 50.47514 | 9.94327 | 16754 ft | 399 kts | 268° |
| 2026-05-04 17:54 | 50.47520 | 9.89975 | 15984 ft | 396 kts | 268° |
| 2026-05-04 17:55 | 50.47524 | 9.85668 | 15230 ft | 392 kts | 268° |
| 2026-05-04 17:55 | 50.47522 | 9.81408 | 14499 ft | 387 kts | 268° |
| 2026-05-04 17:55 | 50.47519 | 9.77245 | 13827 ft | 382 kts | 268° |
| 2026-05-04 17:55 | 50.47515 | 9.73104 | 13188 ft | 376 kts | 268° |
| 2026-05-04 17:56 | 50.47510 | 9.69029 | 12773 ft | 370 kts | 268° |
| 2026-05-04 17:56 | 50.47503 | 9.64985 | 12523 ft | 371 kts | 268° |
| 2026-05-04 17:56 | 50.47303 | 9.60961 | 12266 ft | 366 kts | 256° |
| 2026-05-04 17:56 | 50.46402 | 9.57272 | 11867 ft | 359 kts | 239° |
| 2026-05-04 17:57 | 50.44935 | 9.54131 | 11114 ft | 355 kts | 231° |
| 2026-05-04 17:57 | 50.43380 | 9.51128 | 10317 ft | 354 kts | 230° |
| 2026-05-04 17:57 | 50.41839 | 9.48175 | 9501 ft | 354 kts | 230° |
| 2026-05-04 17:57 | 50.40276 | 9.45178 | 8699 ft | 355 kts | 231° |
| 2026-05-04 17:58 | 50.38715 | 9.42174 | 7903 ft | 354 kts | 231° |
| 2026-05-04 17:58 | 50.37188 | 9.39230 | 7602 ft | 339 kts | 231° |
| 2026-05-04 17:58 | 50.35746 | 9.36444 | 7469 ft | 320 kts | 231° |
| 2026-05-04 17:58 | 50.34381 | 9.33810 | 7345 ft | 303 kts | 231° |
| 2026-05-04 17:59 | 50.33084 | 9.31309 | 7225 ft | 288 kts | 231° |
| 2026-05-04 17:59 | 50.31843 | 9.28929 | 7093 ft | 275 kts | 231° |
| 2026-05-04 17:59 | 50.29450 | 9.24346 | 6979 ft | 275 kts | 231° |
| 2026-05-04 18:00 | 50.28238 | 9.22024 | 6980 ft | 276 kts | 231° |
| 2026-05-04 18:00 | 50.27025 | 9.19697 | 6980 ft | 275 kts | 231° |
| 2026-05-04 18:00 | 50.25819 | 9.17379 | 6980 ft | 275 kts | 231° |
| 2026-05-04 18:00 | 50.24605 | 9.15053 | 6980 ft | 275 kts | 231° |
| 2026-05-04 18:01 | 50.23406 | 9.12763 | 6980 ft | 275 kts | 231° |
| 2026-05-04 18:01 | 50.22189 | 9.10447 | 6980 ft | 275 kts | 230° |
| 2026-05-04 18:01 | 50.20974 | 9.08132 | 6981 ft | 275 kts | 231° |
| 2026-05-04 18:02 | 50.18587 | 9.03590 | 6684 ft | 254 kts | 231° |
| 2026-05-04 18:02 | 50.17515 | 9.01552 | 6473 ft | 233 kts | 230° |
| 2026-05-04 18:02 | 50.16517 | 8.99652 | 5985 ft | 227 kts | 231° |
| 2026-05-04 18:02 | 50.15523 | 8.97760 | 5409 ft | 224 kts | 230° |
| 2026-05-04 18:03 | 50.14681 | 8.95748 | 5109 ft | 215 kts | 250° |
| 2026-05-04 18:03 | 50.14307 | 8.93431 | 5124 ft | 228 kts | 253° |
| 2026-05-04 18:03 | 50.13643 | 8.91242 | 5012 ft | 222 kts | 244° |
| 2026-05-04 18:03 | 50.13038 | 8.89051 | 5023 ft | 212 kts | 249° |
| 2026-05-04 18:04 | 50.12535 | 8.86948 | 4987 ft | 205 kts | 249° |
| 2026-05-04 18:04 | 50.12059 | 8.84921 | 4785 ft | 199 kts | 250° |
| 2026-05-04 18:04 | 50.11131 | 8.80978 | 4265 ft | 188 kts | 250° |
| 2026-05-04 18:05 | 50.10687 | 8.79093 | 4002 ft | 182 kts | 250° |
| 2026-05-04 18:05 | 50.10254 | 8.77263 | 3750 ft | 177 kts | 251° |
| 2026-05-04 18:05 | 50.09828 | 8.75461 | 3505 ft | 176 kts | 251° |
| 2026-05-04 18:05 | 50.09409 | 8.73688 | 3253 ft | 176 kts | 252° |
| 2026-05-04 18:06 | 50.08568 | 8.70134 | 2758 ft | 174 kts | 252° |
| 2026-05-04 18:06 | 50.08149 | 8.68369 | 2506 ft | 173 kts | 252° |
| 2026-05-04 18:06 | 50.07741 | 8.66647 | 2268 ft | 165 kts | 251° |
| 2026-05-04 18:07 | 50.07354 | 8.65020 | 2047 ft | 155 kts | 252° |
| 2026-05-04 18:07 | 50.06988 | 8.63479 | 1832 ft | 149 kts | 252° |
| 2026-05-04 18:07 | 50.06632 | 8.61980 | 1623 ft | 148 kts | 251° |
| 2026-05-04 18:07 | 50.06276 | 8.60484 | 1416 ft | 147 kts | 251° |
| 2026-05-04 18:08 | 50.05922 | 8.58995 | 1204 ft | 146 kts | 251° |
| 2026-05-04 18:08 | 50.05569 | 8.57515 | 997 ft | 146 kts | 251° |
| 2026-05-04 18:08 | 50.05217 | 8.56041 | 789 ft | 145 kts | 251° |
| 2026-05-04 18:08 | 50.04868 | 8.54565 | 578 ft | 145 kts | 251° |
| 2026-05-04 18:09 | 50.04202 | 8.51779 | 335 ft | 111 kts | 250° |
| 2026-05-04 18:09 | 50.03898 | 8.50533 | 323 ft | 32 kts | 242° |
| 2026-05-04 18:10 | 50.03757 | 8.50272 | 318 ft | 30 kts | 220° |
| 2026-05-04 18:10 | 50.03694 | 8.50194 | 320 ft | 11 kts | 212° |
| 2026-05-04 18:10 | 50.03637 | 8.50204 | 323 ft | 8 kts | 139° |
| 2026-05-04 18:10 | 50.03629 | 8.50279 | 325 ft | 7 kts | 77° |
| 2026-05-04 18:11 | 50.03643 | 8.50350 | 325 ft | 7 kts | 70° |
| 2026-05-04 18:11 | 50.03669 | 8.50458 | 325 ft | 15 kts | 69° |
| 2026-05-04 18:11 | 50.03718 | 8.50661 | 330 ft | 15 kts | 69° |
| 2026-05-04 18:11 | 50.03743 | 8.50767 | 329 ft | 16 kts | 70° |
| 2026-05-04 18:12 | 50.03794 | 8.50978 | 333 ft | 25 kts | 70° |
| 2026-05-04 18:12 | 50.03861 | 8.51258 | 334 ft | 29 kts | 70° |
| 2026-05-04 18:12 | 50.03932 | 8.51554 | 332 ft | 29 kts | 70° |
| 2026-05-04 18:12 | 50.04004 | 8.51853 | 334 ft | 29 kts | 69° |
| 2026-05-04 18:13 | 50.04075 | 8.52149 | 346 ft | 29 kts | 69° |
| 2026-05-04 18:13 | 50.04144 | 8.52440 | 353 ft | 28 kts | 69° |
| 2026-05-04 18:13 | 50.04280 | 8.53007 | 356 ft | 28 kts | 69° |
| 2026-05-04 18:14 | 50.04345 | 8.53281 | 368 ft | 28 kts | 70° |
| 2026-05-04 18:14 | 50.04399 | 8.53577 | 375 ft | 28 kts | 84° |
| 2026-05-04 18:14 | 50.04419 | 8.53880 | 375 ft | 29 kts | 84° |
| 2026-05-04 18:15 | 50.04449 | 8.54488 | 368 ft | 26 kts | 98° |
| 2026-05-04 18:15 | 50.04166 | 8.54854 | 351 ft | 15 kts | 160° |
| 2026-05-04 18:15 | 50.04088 | 8.54899 | 351 ft | 2 kts | 160° |
| 2026-05-04 18:16 | 50.04082 | 8.54903 | 351 ft | 0 kts | 160° |
| 2026-05-04 18:16 | 50.04071 | 8.54909 | 358 ft | 6 kts | 160° |
| 2026-05-04 18:16 | 50.03994 | 8.54954 | 360 ft | 17 kts | 159° |
| 2026-05-04 18:17 | 50.03856 | 8.55144 | 357 ft | 13 kts | 73° |
| 2026-05-04 18:17 | 50.03890 | 8.55286 | 357 ft | 14 kts | 70° |
| 2026-05-04 18:17 | 50.03973 | 8.55633 | 355 ft | 20 kts | 70° |
| 2026-05-04 18:18 | 50.04024 | 8.55847 | 353 ft | 22 kts | 69° |
| 2026-05-04 18:18 | 50.04078 | 8.56075 | 351 ft | 23 kts | 69° |
| 2026-05-04 18:18 | 50.04136 | 8.56318 | 353 ft | 25 kts | 69° |
| 2026-05-04 18:18 | 50.04197 | 8.56572 | 362 ft | 25 kts | 70° |
| 2026-05-04 18:19 | 50.04323 | 8.57099 | 367 ft | 27 kts | 69° |
| 2026-05-04 18:19 | 50.04389 | 8.57378 | 363 ft | 28 kts | 70° |
| 2026-05-04 18:19 | 50.04443 | 8.57603 | 370 ft | 17 kts | 70° |
| 2026-05-04 18:20 | 50.04482 | 8.57766 | 364 ft | 15 kts | 70° |
| 2026-05-04 18:20 | 50.04515 | 8.57904 | 367 ft | 11 kts | 70° |
| 2026-05-04 18:20 | 50.04539 | 8.58007 | 364 ft | 11 kts | 70° |
| 2026-05-04 18:20 | 50.04568 | 8.58124 | 363 ft | 12 kts | 69° |
| 2026-05-04 18:21 | 50.04593 | 8.58230 | 366 ft | 9 kts | 69° |
| 2026-05-04 18:21 | 50.04613 | 8.58315 | 368 ft | 7 kts | 70° |
| 2026-05-04 18:21 | 50.04629 | 8.58379 | 369 ft | 8 kts | 70° |
| 2026-05-04 18:21 | 50.04646 | 8.58455 | 369 ft | 7 kts | 70° |
| 2026-05-04 18:22 | 50.04663 | 8.58525 | 369 ft | 9 kts | 69° |
| 2026-05-04 18:22 | 50.04694 | 8.58650 | 371 ft | 15 kts | 68° |
| 2026-05-04 18:22 | 50.04737 | 8.58811 | 368 ft | 17 kts | 69° |
| 2026-05-04 18:22 | 50.04777 | 8.58978 | 368 ft | 15 kts | 70° |
| 2026-05-04 18:23 | 50.04807 | 8.59076 | 368 ft | 5 kts | 27° |
| 2026-05-04 18:23 | 50.04842 | 8.59068 | 369 ft | 6 kts | 342° |
| 2026-05-04 18:23 | 50.04871 | 8.59051 | 366 ft | 2 kts | 339° |
| 2026-05-04 18:23 | 50.04876 | 8.59049 | 365 ft | 0 kts | 339° |